sensor_id;sensor_type;location;lat;lon;timestamp;P1;durP1;ratioP1;P2;durP2;ratioP2
8478;SDS011;4276;49.354;6.804;2022-12-18T00:00:47;17.57;;;13.10;;
8478;SDS011;4276;49.354;6.804;2022-12-18T00:03:14;17.90;;;13.07;;
8478;SDS011;4276;49.354;6.804;2022-12-18T00:05:48;17.57;;;12.67;;
8478;SDS011;4276;49.354;6.804;2022-12-18T00:08:18;18.00;;;13.33;;
8478;SDS011;4276;49.354;6.804;2022-12-18T00:10:45;18.37;;;14.00;;
8478;SDS011;4276;49.354;6.804;2022-12-18T00:13:12;18.43;;;13.87;;
8478;SDS011;4276;49.354;6.804;2022-12-18T00:15:39;17.13;;;13.20;;
8478;SDS011;4276;49.354;6.804;2022-12-18T00:18:05;16.87;;;13.83;;
8478;SDS011;4276;49.354;6.804;2022-12-18T00:20:36;18.30;;;14.17;;
8478;SDS011;4276;49.354;6.804;2022-12-18T00:23:04;19.43;;;14.63;;
8478;SDS011;4276;49.354;6.804;2022-12-18T00:25:34;20.03;;;15.20;;
8478;SDS011;4276;49.354;6.804;2022-12-18T00:28:02;20.03;;;15.33;;
8478;SDS011;4276;49.354;6.804;2022-12-18T00:30:30;18.47;;;14.13;;
8478;SDS011;4276;49.354;6.804;2022-12-18T00:32:56;19.70;;;14.90;;
8478;SDS011;4276;49.354;6.804;2022-12-18T00:35:23;20.83;;;15.33;;
8478;SDS011;4276;49.354;6.804;2022-12-18T00:37:49;20.33;;;14.73;;
8478;SDS011;4276;49.354;6.804;2022-12-18T00:40:16;19.97;;;15.67;;
8478;SDS011;4276;49.354;6.804;2022-12-18T00:42:42;19.77;;;14.93;;
8478;SDS011;4276;49.354;6.804;2022-12-18T00:47:51;17.00;;;14.73;;
8478;SDS011;4276;49.354;6.804;2022-12-18T00:50:18;21.13;;;15.57;;
8478;SDS011;4276;49.354;6.804;2022-12-18T00:52:44;20.70;;;15.57;;
8478;SDS011;4276;49.354;6.804;2022-12-18T00:55:11;19.10;;;15.63;;
8478;SDS011;4276;49.354;6.804;2022-12-18T00:57:37;22.90;;;16.50;;
8478;SDS011;4276;49.354;6.804;2022-12-18T01:00:05;21.03;;;16.20;;
8478;SDS011;4276;49.354;6.804;2022-12-18T01:02:32;21.80;;;16.37;;
8478;SDS011;4276;49.354;6.804;2022-12-18T01:04:59;22.70;;;16.10;;
8478;SDS011;4276;49.354;6.804;2022-12-18T01:07:25;21.23;;;16.00;;
8478;SDS011;4276;49.354;6.804;2022-12-18T01:09:52;21.10;;;15.90;;
8478;SDS011;4276;49.354;6.804;2022-12-18T01:12:18;19.13;;;14.63;;
8478;SDS011;4276;49.354;6.804;2022-12-18T01:14:45;20.57;;;15.47;;
8478;SDS011;4276;49.354;6.804;2022-12-18T01:17:11;23.00;;;16.13;;
8478;SDS011;4276;49.354;6.804;2022-12-18T01:19:37;20.77;;;16.50;;
8478;SDS011;4276;49.354;6.804;2022-12-18T01:22:04;22.67;;;17.00;;
8478;SDS011;4276;49.354;6.804;2022-12-18T01:24:30;22.50;;;16.27;;
8478;SDS011;4276;49.354;6.804;2022-12-18T01:26:57;19.67;;;15.73;;
8478;SDS011;4276;49.354;6.804;2022-12-18T01:29:23;20.53;;;16.57;;
8478;SDS011;4276;49.354;6.804;2022-12-18T01:31:50;20.10;;;15.43;;
8478;SDS011;4276;49.354;6.804;2022-12-18T01:34:17;21.90;;;16.73;;
8478;SDS011;4276;49.354;6.804;2022-12-18T01:36:44;20.67;;;15.20;;
8478;SDS011;4276;49.354;6.804;2022-12-18T01:39:11;18.83;;;14.70;;
8478;SDS011;4276;49.354;6.804;2022-12-18T01:41:38;23.37;;;16.30;;
8478;SDS011;4276;49.354;6.804;2022-12-18T01:52:46;21.97;;;16.47;;
8478;SDS011;4276;49.354;6.804;2022-12-18T01:55:16;22.50;;;16.93;;
8478;SDS011;4276;49.354;6.804;2022-12-18T01:57:44;19.73;;;16.43;;
8478;SDS011;4276;49.354;6.804;2022-12-18T02:00:14;21.73;;;16.47;;
8478;SDS011;4276;49.354;6.804;2022-12-18T02:02:42;19.70;;;15.50;;
8478;SDS011;4276;49.354;6.804;2022-12-18T02:05:10;19.57;;;16.77;;
8478;SDS011;4276;49.354;6.804;2022-12-18T02:13:12;19.83;;;15.57;;
8478;SDS011;4276;49.354;6.804;2022-12-18T02:15:45;21.13;;;14.90;;
8478;SDS011;4276;49.354;6.804;2022-12-18T02:18:18;19.53;;;14.93;;
8478;SDS011;4276;49.354;6.804;2022-12-18T02:20:54;20.73;;;16.20;;
8478;SDS011;4276;49.354;6.804;2022-12-18T02:26:43;19.53;;;14.80;;
8478;SDS011;4276;49.354;6.804;2022-12-18T02:29:15;19.80;;;15.27;;
8478;SDS011;4276;49.354;6.804;2022-12-18T02:31:45;19.63;;;15.20;;
8478;SDS011;4276;49.354;6.804;2022-12-18T02:34:20;21.80;;;15.43;;
8478;SDS011;4276;49.354;6.804;2022-12-18T02:36:48;19.43;;;14.37;;
8478;SDS011;4276;49.354;6.804;2022-12-18T02:39:16;19.67;;;14.67;;
8478;SDS011;4276;49.354;6.804;2022-12-18T02:41:43;18.87;;;14.73;;
8478;SDS011;4276;49.354;6.804;2022-12-18T02:44:11;21.43;;;15.20;;
8478;SDS011;4276;49.354;6.804;2022-12-18T02:46:45;20.00;;;14.33;;
8478;SDS011;4276;49.354;6.804;2022-12-18T02:51:52;21.33;;;16.07;;
8478;SDS011;4276;49.354;6.804;2022-12-18T03:00:14;18.90;;;15.00;;
8478;SDS011;4276;49.354;6.804;2022-12-18T03:05:23;18.77;;;14.73;;
8478;SDS011;4276;49.354;6.804;2022-12-18T03:08:06;19.03;;;14.90;;
8478;SDS011;4276;49.354;6.804;2022-12-18T03:10:35;19.30;;;14.53;;
8478;SDS011;4276;49.354;6.804;2022-12-18T03:13:08;17.53;;;14.83;;
8478;SDS011;4276;49.354;6.804;2022-12-18T03:15:37;19.17;;;14.80;;
8478;SDS011;4276;49.354;6.804;2022-12-18T03:18:16;19.73;;;15.37;;
8478;SDS011;4276;49.354;6.804;2022-12-18T03:20:45;16.80;;;14.23;;
8478;SDS011;4276;49.354;6.804;2022-12-18T03:23:17;17.27;;;14.47;;
8478;SDS011;4276;49.354;6.804;2022-12-18T03:25:51;20.27;;;15.60;;
8478;SDS011;4276;49.354;6.804;2022-12-18T03:28:21;20.97;;;14.83;;
8478;SDS011;4276;49.354;6.804;2022-12-18T03:30:49;18.83;;;14.43;;
8478;SDS011;4276;49.354;6.804;2022-12-18T03:33:19;19.77;;;14.43;;
8478;SDS011;4276;49.354;6.804;2022-12-18T03:35:53;18.60;;;14.20;;
8478;SDS011;4276;49.354;6.804;2022-12-18T03:38:20;18.40;;;14.97;;
8478;SDS011;4276;49.354;6.804;2022-12-18T03:46:15;17.80;;;14.03;;
8478;SDS011;4276;49.354;6.804;2022-12-18T03:49:08;19.83;;;15.03;;
8478;SDS011;4276;49.354;6.804;2022-12-18T03:51:48;17.77;;;14.43;;
8478;SDS011;4276;49.354;6.804;2022-12-18T03:54:17;17.53;;;14.30;;
8478;SDS011;4276;49.354;6.804;2022-12-18T03:56:46;19.20;;;14.80;;
8478;SDS011;4276;49.354;6.804;2022-12-18T03:59:15;19.33;;;14.37;;
8478;SDS011;4276;49.354;6.804;2022-12-18T04:01:45;24.73;;;15.63;;
8478;SDS011;4276;49.354;6.804;2022-12-18T04:04:13;19.83;;;14.57;;
8478;SDS011;4276;49.354;6.804;2022-12-18T04:06:41;18.60;;;14.67;;
8478;SDS011;4276;49.354;6.804;2022-12-18T04:09:09;21.03;;;14.70;;
8478;SDS011;4276;49.354;6.804;2022-12-18T04:11:35;20.87;;;14.77;;
8478;SDS011;4276;49.354;6.804;2022-12-18T04:14:02;18.70;;;14.97;;
8478;SDS011;4276;49.354;6.804;2022-12-18T04:16:32;19.63;;;15.20;;
8478;SDS011;4276;49.354;6.804;2022-12-18T04:18:58;21.47;;;15.67;;
8478;SDS011;4276;49.354;6.804;2022-12-18T04:21:25;20.00;;;15.87;;
8478;SDS011;4276;49.354;6.804;2022-12-18T04:23:51;20.23;;;15.37;;
8478;SDS011;4276;49.354;6.804;2022-12-18T04:26:18;21.53;;;16.20;;
8478;SDS011;4276;49.354;6.804;2022-12-18T04:28:45;21.90;;;16.83;;
8478;SDS011;4276;49.354;6.804;2022-12-18T04:31:11;18.43;;;14.70;;
8478;SDS011;4276;49.354;6.804;2022-12-18T04:33:38;19.83;;;14.80;;
8478;SDS011;4276;49.354;6.804;2022-12-18T04:36:05;18.77;;;14.63;;
8478;SDS011;4276;49.354;6.804;2022-12-18T04:38:32;19.57;;;14.97;;
8478;SDS011;4276;49.354;6.804;2022-12-18T04:40:58;24.10;;;16.13;;
8478;SDS011;4276;49.354;6.804;2022-12-18T04:43:25;21.40;;;16.80;;
8478;SDS011;4276;49.354;6.804;2022-12-18T04:45:51;20.30;;;15.57;;
8478;SDS011;4276;49.354;6.804;2022-12-18T04:48:18;22.63;;;16.03;;
8478;SDS011;4276;49.354;6.804;2022-12-18T04:50:46;21.57;;;16.30;;
8478;SDS011;4276;49.354;6.804;2022-12-18T04:53:13;23.40;;;17.00;;
8478;SDS011;4276;49.354;6.804;2022-12-18T04:55:39;24.67;;;17.20;;
8478;SDS011;4276;49.354;6.804;2022-12-18T04:58:05;21.23;;;16.60;;
8478;SDS011;4276;49.354;6.804;2022-12-18T05:00:32;20.47;;;16.57;;
8478;SDS011;4276;49.354;6.804;2022-12-18T05:03:00;22.37;;;16.80;;
8478;SDS011;4276;49.354;6.804;2022-12-18T05:05:27;23.90;;;17.80;;
8478;SDS011;4276;49.354;6.804;2022-12-18T05:07:54;22.00;;;17.50;;
8478;SDS011;4276;49.354;6.804;2022-12-18T05:10:20;21.57;;;16.53;;
8478;SDS011;4276;49.354;6.804;2022-12-18T05:12:47;20.47;;;15.67;;
8478;SDS011;4276;49.354;6.804;2022-12-18T05:15:30;20.27;;;15.43;;
8478;SDS011;4276;49.354;6.804;2022-12-18T05:17:57;22.20;;;15.80;;
8478;SDS011;4276;49.354;6.804;2022-12-18T05:20:24;18.57;;;15.13;;
8478;SDS011;4276;49.354;6.804;2022-12-18T05:22:53;18.80;;;14.97;;
8478;SDS011;4276;49.354;6.804;2022-12-18T05:25:20;20.07;;;14.73;;
8478;SDS011;4276;49.354;6.804;2022-12-18T05:27:46;18.97;;;14.50;;
8478;SDS011;4276;49.354;6.804;2022-12-18T05:30:13;19.67;;;14.47;;
8478;SDS011;4276;49.354;6.804;2022-12-18T05:32:40;19.93;;;14.37;;
8478;SDS011;4276;49.354;6.804;2022-12-18T05:35:07;18.83;;;14.37;;
8478;SDS011;4276;49.354;6.804;2022-12-18T05:37:35;19.60;;;14.53;;
8478;SDS011;4276;49.354;6.804;2022-12-18T05:40:08;22.67;;;14.80;;
8478;SDS011;4276;49.354;6.804;2022-12-18T05:42:35;18.07;;;14.13;;
8478;SDS011;4276;49.354;6.804;2022-12-18T05:45:01;19.50;;;14.30;;
8478;SDS011;4276;49.354;6.804;2022-12-18T05:47:28;21.23;;;14.87;;
8478;SDS011;4276;49.354;6.804;2022-12-18T05:49:55;17.70;;;13.50;;
8478;SDS011;4276;49.354;6.804;2022-12-18T05:52:21;20.27;;;14.67;;
8478;SDS011;4276;49.354;6.804;2022-12-18T05:54:47;20.00;;;14.47;;
8478;SDS011;4276;49.354;6.804;2022-12-18T05:57:14;20.90;;;15.43;;
8478;SDS011;4276;49.354;6.804;2022-12-18T05:59:40;22.30;;;15.57;;
8478;SDS011;4276;49.354;6.804;2022-12-18T06:02:07;20.77;;;14.63;;
8478;SDS011;4276;49.354;6.804;2022-12-18T06:04:34;20.27;;;14.93;;
8478;SDS011;4276;49.354;6.804;2022-12-18T06:07:03;18.73;;;13.67;;
8478;SDS011;4276;49.354;6.804;2022-12-18T06:09:29;18.80;;;14.23;;
8478;SDS011;4276;49.354;6.804;2022-12-18T06:11:56;20.80;;;14.63;;
8478;SDS011;4276;49.354;6.804;2022-12-18T06:14:22;22.60;;;15.03;;
8478;SDS011;4276;49.354;6.804;2022-12-18T06:16:50;17.90;;;13.20;;
8478;SDS011;4276;49.354;6.804;2022-12-18T06:19:17;18.80;;;14.10;;
8478;SDS011;4276;49.354;6.804;2022-12-18T06:21:44;21.70;;;14.57;;
8478;SDS011;4276;49.354;6.804;2022-12-18T06:24:10;20.43;;;14.13;;
8478;SDS011;4276;49.354;6.804;2022-12-18T06:26:38;21.67;;;15.20;;
8478;SDS011;4276;49.354;6.804;2022-12-18T06:29:05;22.67;;;16.27;;
8478;SDS011;4276;49.354;6.804;2022-12-18T06:31:31;21.20;;;15.40;;
8478;SDS011;4276;49.354;6.804;2022-12-18T06:33:58;22.83;;;16.20;;
8478;SDS011;4276;49.354;6.804;2022-12-18T06:36:25;22.83;;;16.10;;
8478;SDS011;4276;49.354;6.804;2022-12-18T06:38:52;22.77;;;15.43;;
8478;SDS011;4276;49.354;6.804;2022-12-18T06:41:19;21.73;;;14.60;;
8478;SDS011;4276;49.354;6.804;2022-12-18T06:43:46;19.97;;;15.03;;
8478;SDS011;4276;49.354;6.804;2022-12-18T06:46:12;23.23;;;16.20;;
8478;SDS011;4276;49.354;6.804;2022-12-18T06:48:39;20.33;;;15.27;;
8478;SDS011;4276;49.354;6.804;2022-12-18T06:51:06;22.33;;;16.43;;
8478;SDS011;4276;49.354;6.804;2022-12-18T06:53:33;21.77;;;15.73;;
8478;SDS011;4276;49.354;6.804;2022-12-18T06:56:01;22.30;;;15.60;;
8478;SDS011;4276;49.354;6.804;2022-12-18T06:58:35;23.50;;;16.00;;
8478;SDS011;4276;49.354;6.804;2022-12-18T07:01:02;22.07;;;15.57;;
8478;SDS011;4276;49.354;6.804;2022-12-18T07:03:30;24.10;;;16.67;;
8478;SDS011;4276;49.354;6.804;2022-12-18T07:05:56;22.63;;;16.43;;
8478;SDS011;4276;49.354;6.804;2022-12-18T07:08:23;24.47;;;17.00;;
8478;SDS011;4276;49.354;6.804;2022-12-18T07:10:49;23.30;;;16.77;;
8478;SDS011;4276;49.354;6.804;2022-12-18T07:13:21;25.73;;;18.93;;
8478;SDS011;4276;49.354;6.804;2022-12-18T07:15:47;24.33;;;17.30;;
8478;SDS011;4276;49.354;6.804;2022-12-18T07:18:14;23.27;;;16.90;;
8478;SDS011;4276;49.354;6.804;2022-12-18T07:20:40;23.90;;;17.47;;
8478;SDS011;4276;49.354;6.804;2022-12-18T07:23:07;26.87;;;17.43;;
8478;SDS011;4276;49.354;6.804;2022-12-18T07:25:36;24.50;;;17.07;;
8478;SDS011;4276;49.354;6.804;2022-12-18T07:28:03;25.53;;;19.03;;
8478;SDS011;4276;49.354;6.804;2022-12-18T07:30:30;23.10;;;18.20;;
8478;SDS011;4276;49.354;6.804;2022-12-18T07:32:56;25.07;;;18.03;;
8478;SDS011;4276;49.354;6.804;2022-12-18T07:35:23;26.73;;;18.77;;
8478;SDS011;4276;49.354;6.804;2022-12-18T07:37:50;25.50;;;18.20;;
8478;SDS011;4276;49.354;6.804;2022-12-18T07:40:17;23.40;;;17.57;;
8478;SDS011;4276;49.354;6.804;2022-12-18T07:42:43;26.87;;;18.43;;
8478;SDS011;4276;49.354;6.804;2022-12-18T07:45:10;26.23;;;18.00;;
8478;SDS011;4276;49.354;6.804;2022-12-18T07:47:36;25.80;;;18.70;;
8478;SDS011;4276;49.354;6.804;2022-12-18T07:50:03;27.50;;;18.93;;
8478;SDS011;4276;49.354;6.804;2022-12-18T07:52:30;28.47;;;18.53;;
8478;SDS011;4276;49.354;6.804;2022-12-18T07:54:58;24.73;;;17.07;;
8478;SDS011;4276;49.354;6.804;2022-12-18T07:57:24;22.03;;;16.60;;
8478;SDS011;4276;49.354;6.804;2022-12-18T08:00:11;22.40;;;17.23;;
8478;SDS011;4276;49.354;6.804;2022-12-18T08:02:38;21.83;;;16.90;;
8478;SDS011;4276;49.354;6.804;2022-12-18T08:05:05;21.83;;;16.10;;
8478;SDS011;4276;49.354;6.804;2022-12-18T08:07:32;26.00;;;17.20;;
8478;SDS011;4276;49.354;6.804;2022-12-18T08:09:58;24.90;;;16.50;;
8478;SDS011;4276;49.354;6.804;2022-12-18T08:12:25;22.50;;;15.37;;
8478;SDS011;4276;49.354;6.804;2022-12-18T08:14:51;27.43;;;19.43;;
8478;SDS011;4276;49.354;6.804;2022-12-18T08:17:19;23.90;;;17.13;;
8478;SDS011;4276;49.354;6.804;2022-12-18T08:19:46;26.90;;;18.57;;
8478;SDS011;4276;49.354;6.804;2022-12-18T08:22:12;26.67;;;18.63;;
8478;SDS011;4276;49.354;6.804;2022-12-18T08:24:38;24.97;;;17.87;;
8478;SDS011;4276;49.354;6.804;2022-12-18T08:27:05;32.60;;;21.07;;
8478;SDS011;4276;49.354;6.804;2022-12-18T08:29:51;27.37;;;20.03;;
8478;SDS011;4276;49.354;6.804;2022-12-18T08:32:18;30.70;;;20.40;;
8478;SDS011;4276;49.354;6.804;2022-12-18T08:34:44;28.50;;;19.87;;
8478;SDS011;4276;49.354;6.804;2022-12-18T08:37:11;27.73;;;18.53;;
8478;SDS011;4276;49.354;6.804;2022-12-18T08:39:37;26.73;;;19.23;;
8478;SDS011;4276;49.354;6.804;2022-12-18T08:42:03;28.83;;;18.77;;
8478;SDS011;4276;49.354;6.804;2022-12-18T08:44:48;26.33;;;19.37;;
8478;SDS011;4276;49.354;6.804;2022-12-18T08:47:15;30.83;;;20.50;;
8478;SDS011;4276;49.354;6.804;2022-12-18T08:49:41;26.07;;;18.73;;
8478;SDS011;4276;49.354;6.804;2022-12-18T08:52:08;27.30;;;19.77;;
8478;SDS011;4276;49.354;6.804;2022-12-18T08:54:35;28.10;;;19.00;;
8478;SDS011;4276;49.354;6.804;2022-12-18T08:57:01;28.47;;;20.00;;
8478;SDS011;4276;49.354;6.804;2022-12-18T08:59:28;27.93;;;20.37;;
8478;SDS011;4276;49.354;6.804;2022-12-18T09:01:54;29.43;;;20.10;;
8478;SDS011;4276;49.354;6.804;2022-12-18T09:04:21;30.67;;;22.57;;
8478;SDS011;4276;49.354;6.804;2022-12-18T09:06:49;29.53;;;21.20;;
8478;SDS011;4276;49.354;6.804;2022-12-18T09:09:15;31.50;;;22.23;;
8478;SDS011;4276;49.354;6.804;2022-12-18T09:11:42;30.30;;;20.90;;
8478;SDS011;4276;49.354;6.804;2022-12-18T09:14:08;32.23;;;21.37;;
8478;SDS011;4276;49.354;6.804;2022-12-18T09:16:35;30.93;;;21.53;;
8478;SDS011;4276;49.354;6.804;2022-12-18T09:19:03;29.37;;;20.30;;
8478;SDS011;4276;49.354;6.804;2022-12-18T09:21:31;27.60;;;19.53;;
8478;SDS011;4276;49.354;6.804;2022-12-18T09:24:02;30.93;;;22.03;;
8478;SDS011;4276;49.354;6.804;2022-12-18T09:26:30;27.43;;;20.83;;
8478;SDS011;4276;49.354;6.804;2022-12-18T09:28:56;31.53;;;21.93;;
8478;SDS011;4276;49.354;6.804;2022-12-18T09:31:23;28.30;;;20.00;;
8478;SDS011;4276;49.354;6.804;2022-12-18T09:33:50;31.00;;;20.93;;
8478;SDS011;4276;49.354;6.804;2022-12-18T09:36:17;34.30;;;22.80;;
8478;SDS011;4276;49.354;6.804;2022-12-18T09:38:44;30.37;;;21.77;;
8478;SDS011;4276;49.354;6.804;2022-12-18T09:43:56;27.70;;;20.90;;
8478;SDS011;4276;49.354;6.804;2022-12-18T09:47:33;31.70;;;22.50;;
8478;SDS011;4276;49.354;6.804;2022-12-18T09:49:45;30.17;;;20.27;;
8478;SDS011;4276;49.354;6.804;2022-12-18T09:52:17;31.97;;;21.60;;
8478;SDS011;4276;49.354;6.804;2022-12-18T09:54:51;29.80;;;21.27;;
8478;SDS011;4276;49.354;6.804;2022-12-18T09:57:20;31.33;;;22.00;;
8478;SDS011;4276;49.354;6.804;2022-12-18T09:59:53;31.43;;;20.67;;
8478;SDS011;4276;49.354;6.804;2022-12-18T10:02:22;32.93;;;21.03;;
8478;SDS011;4276;49.354;6.804;2022-12-18T10:05:12;30.67;;;21.03;;
8478;SDS011;4276;49.354;6.804;2022-12-18T10:07:59;30.87;;;21.97;;
8478;SDS011;4276;49.354;6.804;2022-12-18T10:10:48;31.33;;;22.60;;
8478;SDS011;4276;49.354;6.804;2022-12-18T10:13:33;35.87;;;24.63;;
8478;SDS011;4276;49.354;6.804;2022-12-18T10:21:19;34.27;;;24.40;;
8478;SDS011;4276;49.354;6.804;2022-12-18T10:26:52;33.20;;;23.73;;
8478;SDS011;4276;49.354;6.804;2022-12-18T10:29:19;31.27;;;23.00;;
8478;SDS011;4276;49.354;6.804;2022-12-18T10:31:45;38.93;;;24.90;;
8478;SDS011;4276;49.354;6.804;2022-12-18T10:34:12;33.10;;;24.40;;
8478;SDS011;4276;49.354;6.804;2022-12-18T10:36:39;34.70;;;24.50;;
8478;SDS011;4276;49.354;6.804;2022-12-18T10:39:19;33.27;;;23.77;;
8478;SDS011;4276;49.354;6.804;2022-12-18T10:41:49;32.00;;;23.43;;
8478;SDS011;4276;49.354;6.804;2022-12-18T10:44:16;31.10;;;22.13;;
8478;SDS011;4276;49.354;6.804;2022-12-18T10:46:48;29.07;;;22.43;;
8478;SDS011;4276;49.354;6.804;2022-12-18T10:49:20;38.23;;;25.67;;
8478;SDS011;4276;49.354;6.804;2022-12-18T10:51:49;33.90;;;23.13;;
8478;SDS011;4276;49.354;6.804;2022-12-18T10:54:20;33.73;;;23.37;;
8478;SDS011;4276;49.354;6.804;2022-12-18T10:56:48;32.53;;;23.53;;
8478;SDS011;4276;49.354;6.804;2022-12-18T10:59:16;30.90;;;23.17;;
8478;SDS011;4276;49.354;6.804;2022-12-18T11:01:53;31.03;;;24.20;;
8478;SDS011;4276;49.354;6.804;2022-12-18T11:04:24;34.00;;;24.73;;
8478;SDS011;4276;49.354;6.804;2022-12-18T11:09:29;33.80;;;24.07;;
8478;SDS011;4276;49.354;6.804;2022-12-18T11:11:56;33.70;;;23.20;;
8478;SDS011;4276;49.354;6.804;2022-12-18T11:16:55;31.47;;;23.73;;
8478;SDS011;4276;49.354;6.804;2022-12-18T11:19:42;33.27;;;23.73;;
8478;SDS011;4276;49.354;6.804;2022-12-18T11:22:23;32.80;;;23.77;;
8478;SDS011;4276;49.354;6.804;2022-12-18T11:27:51;33.47;;;24.13;;
8478;SDS011;4276;49.354;6.804;2022-12-18T11:30:26;32.63;;;23.27;;
8478;SDS011;4276;49.354;6.804;2022-12-18T11:35:41;32.17;;;22.33;;
8478;SDS011;4276;49.354;6.804;2022-12-18T11:43:31;32.93;;;23.40;;
8478;SDS011;4276;49.354;6.804;2022-12-18T11:46:06;33.93;;;24.53;;
8478;SDS011;4276;49.354;6.804;2022-12-18T11:48:48;32.73;;;24.07;;
8478;SDS011;4276;49.354;6.804;2022-12-18T11:51:20;34.40;;;24.37;;
8478;SDS011;4276;49.354;6.804;2022-12-18T11:53:52;30.87;;;23.20;;
8478;SDS011;4276;49.354;6.804;2022-12-18T11:56:26;33.50;;;24.30;;
8478;SDS011;4276;49.354;6.804;2022-12-18T11:59:00;32.10;;;23.80;;
8478;SDS011;4276;49.354;6.804;2022-12-18T12:04:48;33.10;;;23.73;;
8478;SDS011;4276;49.354;6.804;2022-12-18T12:10:22;33.87;;;23.47;;
8478;SDS011;4276;49.354;6.804;2022-12-18T12:26:56;39.13;;;29.83;;
8478;SDS011;4276;49.354;6.804;2022-12-18T12:34:55;39.97;;;31.37;;
8478;SDS011;4276;49.354;6.804;2022-12-18T12:37:46;44.53;;;30.80;;
8478;SDS011;4276;49.354;6.804;2022-12-18T12:40:37;43.13;;;32.47;;
8478;SDS011;4276;49.354;6.804;2022-12-18T12:46:17;83.37;;;71.33;;
8478;SDS011;4276;49.354;6.804;2022-12-18T12:48:46;52.77;;;41.30;;
8478;SDS011;4276;49.354;6.804;2022-12-18T12:51:19;46.80;;;38.40;;
8478;SDS011;4276;49.354;6.804;2022-12-18T12:54:11;41.13;;;34.20;;
8478;SDS011;4276;49.354;6.804;2022-12-18T12:59:16;37.13;;;28.13;;
8478;SDS011;4276;49.354;6.804;2022-12-18T13:01:57;35.07;;;25.63;;
8478;SDS011;4276;49.354;6.804;2022-12-18T13:04:36;37.80;;;27.37;;
8478;SDS011;4276;49.354;6.804;2022-12-18T13:16:06;37.33;;;28.67;;
8478;SDS011;4276;49.354;6.804;2022-12-18T13:29:09;50.93;;;40.00;;
8478;SDS011;4276;49.354;6.804;2022-12-18T13:34:21;36.67;;;25.77;;
8478;SDS011;4276;49.354;6.804;2022-12-18T13:39:57;41.97;;;31.63;;
8478;SDS011;4276;49.354;6.804;2022-12-18T13:42:37;38.67;;;28.33;;
8478;SDS011;4276;49.354;6.804;2022-12-18T13:45:35;39.57;;;31.67;;
8478;SDS011;4276;49.354;6.804;2022-12-18T13:48:16;41.00;;;30.40;;
8478;SDS011;4276;49.354;6.804;2022-12-18T13:50:52;46.10;;;36.97;;
8478;SDS011;4276;49.354;6.804;2022-12-18T13:53:26;39.90;;;31.73;;
8478;SDS011;4276;49.354;6.804;2022-12-18T13:55:54;36.33;;;29.80;;
8478;SDS011;4276;49.354;6.804;2022-12-18T13:58:21;36.57;;;28.67;;
8478;SDS011;4276;49.354;6.804;2022-12-18T14:00:48;40.70;;;31.00;;
8478;SDS011;4276;49.354;6.804;2022-12-18T14:03:27;36.00;;;29.10;;
8478;SDS011;4276;49.354;6.804;2022-12-18T14:06:16;35.23;;;27.70;;
8478;SDS011;4276;49.354;6.804;2022-12-18T14:08:42;36.47;;;26.87;;
8478;SDS011;4276;49.354;6.804;2022-12-18T14:11:17;36.90;;;26.27;;
8478;SDS011;4276;49.354;6.804;2022-12-18T14:13:47;38.53;;;26.60;;
8478;SDS011;4276;49.354;6.804;2022-12-18T14:16:16;36.33;;;27.23;;
8478;SDS011;4276;49.354;6.804;2022-12-18T14:18:48;35.83;;;26.33;;
8478;SDS011;4276;49.354;6.804;2022-12-18T14:21:29;34.50;;;25.70;;
8478;SDS011;4276;49.354;6.804;2022-12-18T14:24:15;35.20;;;25.93;;
8478;SDS011;4276;49.354;6.804;2022-12-18T14:26:46;89.03;;;70.67;;
8478;SDS011;4276;49.354;6.804;2022-12-18T14:34:50;44.63;;;39.83;;
8478;SDS011;4276;49.354;6.804;2022-12-18T14:37:20;43.27;;;38.50;;
8478;SDS011;4276;49.354;6.804;2022-12-18T14:39:51;40.30;;;35.70;;
8478;SDS011;4276;49.354;6.804;2022-12-18T14:42:36;39.77;;;33.33;;
8478;SDS011;4276;49.354;6.804;2022-12-18T14:48:12;40.07;;;34.70;;
8478;SDS011;4276;49.354;6.804;2022-12-18T14:53:45;38.20;;;28.80;;
8478;SDS011;4276;49.354;6.804;2022-12-18T14:56:24;38.07;;;27.70;;
8478;SDS011;4276;49.354;6.804;2022-12-18T14:58:56;35.53;;;28.57;;
8478;SDS011;4276;49.354;6.804;2022-12-18T15:01:27;42.27;;;37.27;;
8478;SDS011;4276;49.354;6.804;2022-12-18T15:03:56;35.53;;;27.43;;
8478;SDS011;4276;49.354;6.804;2022-12-18T15:06:28;50.83;;;45.10;;
8478;SDS011;4276;49.354;6.804;2022-12-18T15:09:06;40.40;;;31.80;;
8478;SDS011;4276;49.354;6.804;2022-12-18T15:11:48;36.13;;;28.80;;
8478;SDS011;4276;49.354;6.804;2022-12-18T15:16:55;44.77;;;37.93;;
8478;SDS011;4276;49.354;6.804;2022-12-18T15:19:23;43.70;;;35.87;;
8478;SDS011;4276;49.354;6.804;2022-12-18T15:24:51;38.43;;;31.63;;
8478;SDS011;4276;49.354;6.804;2022-12-18T15:27:22;37.77;;;28.27;;
8478;SDS011;4276;49.354;6.804;2022-12-18T15:30:15;38.67;;;29.90;;
8478;SDS011;4276;49.354;6.804;2022-12-18T15:32:46;35.17;;;27.50;;
8478;SDS011;4276;49.354;6.804;2022-12-18T15:35:14;36.63;;;27.70;;
8478;SDS011;4276;49.354;6.804;2022-12-18T15:37:46;34.50;;;27.33;;
8478;SDS011;4276;49.354;6.804;2022-12-18T15:40:16;46.77;;;38.43;;
8478;SDS011;4276;49.354;6.804;2022-12-18T15:42:47;47.70;;;37.90;;
8478;SDS011;4276;49.354;6.804;2022-12-18T15:45:33;39.03;;;31.20;;
8478;SDS011;4276;49.354;6.804;2022-12-18T15:47:59;41.77;;;33.73;;
8478;SDS011;4276;49.354;6.804;2022-12-18T15:50:26;40.97;;;32.93;;
8478;SDS011;4276;49.354;6.804;2022-12-18T15:52:53;44.67;;;38.43;;
8478;SDS011;4276;49.354;6.804;2022-12-18T15:55:22;42.40;;;34.03;;
8478;SDS011;4276;49.354;6.804;2022-12-18T15:58:08;41.23;;;31.47;;
8478;SDS011;4276;49.354;6.804;2022-12-18T16:00:36;50.70;;;40.43;;
8478;SDS011;4276;49.354;6.804;2022-12-18T16:03:04;42.73;;;33.80;;
8478;SDS011;4276;49.354;6.804;2022-12-18T16:05:31;36.37;;;30.23;;
8478;SDS011;4276;49.354;6.804;2022-12-18T16:07:58;41.83;;;30.07;;
8478;SDS011;4276;49.354;6.804;2022-12-18T16:10:25;36.70;;;29.40;;
8478;SDS011;4276;49.354;6.804;2022-12-18T16:12:52;42.35;;;37.78;;
8478;SDS011;4276;49.354;6.804;2022-12-18T16:15:18;38.23;;;29.43;;
8478;SDS011;4276;49.354;6.804;2022-12-18T16:17:49;38.20;;;28.97;;
8478;SDS011;4276;49.354;6.804;2022-12-18T16:20:17;35.23;;;27.97;;
8478;SDS011;4276;49.354;6.804;2022-12-18T16:22:45;33.33;;;26.77;;
8478;SDS011;4276;49.354;6.804;2022-12-18T16:25:25;36.27;;;27.13;;
8478;SDS011;4276;49.354;6.804;2022-12-18T16:27:53;36.83;;;27.40;;
8478;SDS011;4276;49.354;6.804;2022-12-18T16:30:25;37.33;;;28.13;;
8478;SDS011;4276;49.354;6.804;2022-12-18T16:33:01;37.37;;;27.63;;
8478;SDS011;4276;49.354;6.804;2022-12-18T16:35:27;36.93;;;28.90;;
8478;SDS011;4276;49.354;6.804;2022-12-18T16:37:54;38.57;;;30.07;;
8478;SDS011;4276;49.354;6.804;2022-12-18T16:40:20;38.30;;;28.20;;
8478;SDS011;4276;49.354;6.804;2022-12-18T16:42:47;35.60;;;27.03;;
8478;SDS011;4276;49.354;6.804;2022-12-18T16:45:17;35.93;;;26.90;;
8478;SDS011;4276;49.354;6.804;2022-12-18T16:47:43;35.60;;;27.03;;
8478;SDS011;4276;49.354;6.804;2022-12-18T16:50:10;38.87;;;28.87;;
8478;SDS011;4276;49.354;6.804;2022-12-18T16:52:37;34.60;;;26.57;;
8478;SDS011;4276;49.354;6.804;2022-12-18T16:55:05;34.47;;;26.83;;
8478;SDS011;4276;49.354;6.804;2022-12-18T16:57:31;36.50;;;27.17;;
8478;SDS011;4276;49.354;6.804;2022-12-18T16:59:58;35.40;;;26.97;;
8478;SDS011;4276;49.354;6.804;2022-12-18T17:02:30;31.30;;;25.67;;
8478;SDS011;4276;49.354;6.804;2022-12-18T17:04:57;34.67;;;26.40;;
8478;SDS011;4276;49.354;6.804;2022-12-18T17:07:24;35.80;;;27.87;;
8478;SDS011;4276;49.354;6.804;2022-12-18T17:09:52;33.83;;;27.10;;
8478;SDS011;4276;49.354;6.804;2022-12-18T17:12:19;38.53;;;31.37;;
8478;SDS011;4276;49.354;6.804;2022-12-18T17:14:46;39.43;;;28.63;;
8478;SDS011;4276;49.354;6.804;2022-12-18T17:17:12;35.67;;;25.50;;
8478;SDS011;4276;49.354;6.804;2022-12-18T17:19:48;35.83;;;26.27;;
8478;SDS011;4276;49.354;6.804;2022-12-18T17:22:15;38.10;;;26.63;;